Time;durP1;ratioP1;P1;durP2;ratioP2;P2;SDS_P1;SDS_P2;PMS_P1;PMS_P2;Temp;Humidity;BMP_temperature;BMP_pressure;BME280_temperature;BME280_humidity;BME280_pressure;Samples;Min_cycle;Max_cycle;Signal;HPM_P1;HPM_P2
2023/12/23 00:01:57;;;;;;;7.03;1.63;;;;;;;4.06;100.00;99366.94;10489593;28;20045;-79
2023/12/23 00:07:00;;;;;;;8.63;2.47;;;;;;;3.99;100.00;99393.13;10475285;28;20052;-81
2023/12/23 00:12:07;;;;;;;9.07;1.30;;;;;;;3.80;100.00;99384.72;10477482;28;20040;-80
2023/12/23 00:17:10;;;;;;;7.47;1.00;;;;;;;3.93;100.00;99391.72;10466884;28;20576;-79
2023/12/23 00:22:13;;;;;;;5.75;1.27;;;;;;;3.60;100.00;99397.56;10489234;28;20037;-79
2023/12/23 00:27:18;;;;;;;12.45;1.90;;;;;;;3.62;100.00;99379.72;10455064;28;20049;-79
2023/12/23 00:32:21;;;;;;;11.98;2.10;;;;;;;3.81;100.00;99394.38;10438510;28;20052;-81
2023/12/23 00:37:24;;;;;;;14.68;1.80;;;;;;;3.78;100.00;99398.09;10467071;28;20075;-79
2023/12/23 00:42:28;;;;;;;10.50;1.27;;;;;;;3.66;100.00;99404.25;10463989;28;20055;-77
2023/12/23 00:47:31;;;;;;;17.38;1.60;;;;;;;3.70;100.00;99429.63;10454039;28;20069;-79
2023/12/23 00:52:39;;;;;;;9.85;1.40;;;;;;;3.27;100.00;99421.91;10497686;28;20525;-80
2023/12/23 00:57:43;;;;;;;14.68;2.03;;;;;;;3.17;100.00;99421.66;10485816;28;20071;-80
2023/12/23 01:02:46;;;;;;;11.02;1.05;;;;;;;2.54;100.00;99430.16;10478740;28;20474;-81
2023/12/23 01:07:49;;;;;;;13.13;1.70;;;;;;;3.43;100.00;99432.38;10440330;28;20056;-79
2023/12/23 01:12:54;;;;;;;12.18;0.98;;;;;;;2.88;100.00;99443.91;10462622;28;20073;-79
2023/12/23 01:17:57;;;;;;;12.75;1.38;;;;;;;3.08;100.00;99430.22;10467650;28;20047;-78
2023/12/23 01:23:00;;;;;;;7.70;1.00;;;;;;;3.19;100.00;99427.72;10469313;28;20048;-81
2023/12/23 01:28:05;;;;;;;12.57;1.45;;;;;;;3.13;100.00;99424.63;10458980;28;20045;-80
2023/12/23 01:33:08;;;;;;;15.23;3.80;;;;;;;3.19;100.00;99426.88;10465574;28;20041;-80
2023/12/23 01:38:12;;;;;;;7.57;1.30;;;;;;;3.53;100.00;99441.41;10471633;28;20041;-79
2023/12/23 01:43:17;;;;;;;9.15;1.05;;;;;;;3.40;100.00;99421.94;10459480;28;20052;-79
2023/12/23 01:48:22;;;;;;;11.95;1.45;;;;;;;3.21;100.00;99428.47;10475213;28;20443;-79
2023/12/23 01:53:27;;;;;;;13.95;1.88;;;;;;;3.69;100.00;99423.47;10480587;28;20052;-80
2023/12/23 01:58:32;;;;;;;13.15;2.17;;;;;;;3.61;100.00;99430.28;10468601;28;20699;-80
2023/12/23 02:03:36;;;;;;;11.20;1.63;;;;;;;3.72;100.00;99415.31;10443978;28;20041;-80
2023/12/23 02:08:39;;;;;;;12.60;1.38;;;;;;;3.82;99.85;99399.59;10459938;28;20150;-80
2023/12/23 02:13:52;;;;;;;12.63;1.23;;;;;;;4.03;100.00;99407.91;10502302;28;20068;-80
2023/12/23 02:18:55;;;;;;;10.35;1.38;;;;;;;3.69;100.00;99422.63;10466359;28;20528;-80
2023/12/23 02:24:00;;;;;;;8.73;1.52;;;;;;;3.98;100.00;99411.81;10475940;28;20067;-80
2023/12/23 02:29:04;;;;;;;14.45;1.52;;;;;;;3.81;100.00;99399.69;10481769;28;20045;-80
2023/12/23 02:34:08;;;;;;;10.93;2.03;;;;;;;3.72;100.00;99386.09;10451871;28;20692;-80
2023/12/23 02:39:12;;;;;;;14.32;1.20;;;;;;;4.11;100.00;99407.34;10476230;28;20041;-79
2023/12/23 02:44:17;;;;;;;19.05;2.17;;;;;;;4.31;100.00;99404.16;10482984;28;20570;-80
2023/12/23 02:49:21;;;;;;;8.52;1.77;;;;;;;4.01;100.00;99406.31;10475318;28;20041;-80
2023/12/23 02:54:26;;;;;;;10.20;1.38;;;;;;;4.06;100.00;99405.03;10474557;28;20559;-80
2023/12/23 02:59:29;;;;;;;9.52;1.00;;;;;;;4.00;100.00;99399.28;10462017;28;20136;-80
2023/12/23 03:04:32;;;;;;;8.18;1.50;;;;;;;3.82;100.00;99398.75;10486279;28;20045;-80
2023/12/23 03:09:37;;;;;;;11.10;1.40;;;;;;;3.86;100.00;99379.81;10455833;28;20060;-80
2023/12/23 03:14:41;;;;;;;15.20;2.15;;;;;;;4.24;100.00;99370.13;10460049;28;20045;-81
2023/12/23 03:19:44;;;;;;;9.75;1.45;;;;;;;4.36;100.00;99369.25;10472537;28;20049;-80
2023/12/23 03:24:48;;;;;;;11.95;1.27;;;;;;;3.86;100.00;99373.66;10421326;28;20041;-80
2023/12/23 03:29:51;;;;;;;13.55;1.13;;;;;;;4.10;100.00;99376.41;10460749;28;20492;-80
2023/12/23 03:34:54;;;;;;;10.13;1.75;;;;;;;3.97;100.00;99376.41;10487100;28;20738;-80
2023/12/23 03:39:59;;;;;;;10.07;1.90;;;;;;;3.79;100.00;99391.00;10482627;28;20124;-80
2023/12/23 03:45:03;;;;;;;13.00;1.73;;;;;;;3.79;100.00;99385.69;10477736;28;20067;-79
2023/12/23 03:50:07;;;;;;;16.08;1.98;;;;;;;3.86;100.00;99374.50;10444856;28;20045;-81
2023/12/23 03:55:12;;;;;;;12.80;2.72;;;;;;;3.93;100.00;99359.84;10482875;28;20045;-81
2023/12/23 04:00:17;;;;;;;11.63;1.27;;;;;;;3.59;100.00;99365.78;10464531;28;20135;-80
2023/12/23 04:05:22;;;;;;;9.93;2.10;;;;;;;3.61;100.00;99338.16;10449188;28;20531;-80
2023/12/23 04:10:26;;;;;;;12.23;1.50;;;;;;;3.80;100.00;99350.19;10449624;28;20087;-79
2023/12/23 04:15:29;;;;;;;12.82;1.85;;;;;;;3.73;100.00;99339.16;10454585;28;20408;-80
2023/12/23 04:20:33;;;;;;;7.13;0.98;;;;;;;3.64;100.00;99342.41;10470651;28;20072;-80
2023/12/23 04:25:37;;;;;;;11.27;1.33;;;;;;;3.14;100.00;99326.31;10483090;28;20044;-82
2023/12/23 04:30:40;;;;;;;7.80;1.75;;;;;;;3.15;100.00;99324.50;10493374;28;20064;-82
2023/12/23 04:35:43;;;;;;;9.25;1.58;;;;;;;3.10;100.00;99300.09;10443479;28;20043;-80
2023/12/23 04:40:48;;;;;;;7.07;1.05;;;;;;;2.74;100.00;99309.53;10478041;28;20068;-81
2023/12/23 04:45:54;;;;;;;8.52;1.85;;;;;;;2.98;100.00;99309.72;10503724;28;20518;-80
2023/12/23 04:50:58;;;;;;;9.10;0.88;;;;;;;2.95;100.00;99286.06;10468463;28;20063;-83
2023/12/23 04:56:03;;;;;;;9.77;2.45;;;;;;;3.20;100.00;99280.78;10448957;28;20139;-80
2023/12/23 05:01:06;;;;;;;8.63;0.80;;;;;;;2.97;100.00;99271.75;10477534;28;20040;-81
2023/12/23 05:06:09;;;;;;;6.35;0.77;;;;;;;3.14;100.00;99262.63;10473451;28;20132;-81
2023/12/23 05:11:14;;;;;;;6.90;0.80;;;;;;;3.09;100.00;99266.56;10466267;28;20048;-82
2023/12/23 05:16:18;;;;;;;3.50;0.35;;;;;;;2.67;100.00;99255.22;10489361;28;20102;-82
2023/12/23 05:21:24;;;;;;;3.42;0.38;;;;;;;3.03;100.00;99239.47;10472564;28;20055;-82
2023/12/23 05:26:28;;;;;;;6.78;0.80;;;;;;;3.06;100.00;99233.13;10473619;28;20045;-80
2023/12/23 05:31:31;;;;;;;3.60;0.65;;;;;;;2.83;100.00;99232.03;10485841;28;20113;-82
2023/12/23 05:36:34;;;;;;;1.65;0.47;;;;;;;2.78;100.00;99229.69;10466626;28;20488;-80
2023/12/23 05:41:38;;;;;;;1.10;0.32;;;;;;;2.95;100.00;99222.38;10492279;28;20489;-82
2023/12/23 05:46:43;;;;;;;2.92;0.35;;;;;;;3.10;100.00;99202.78;10472415;28;20044;-82
2023/12/23 05:51:46;;;;;;;1.75;0.85;;;;;;;2.77;100.00;99193.53;10471159;28;20052;-81
2023/12/23 05:56:50;;;;;;;3.78;0.82;;;;;;;2.97;100.00;99189.50;10480464;28;20051;-81
2023/12/23 06:01:53;;;;;;;2.58;0.45;;;;;;;3.07;100.00;99168.47;10481397;28;20056;-83
2023/12/23 06:06:56;;;;;;;1.83;0.32;;;;;;;3.54;100.00;99151.03;10473494;28;20098;-84
2023/12/23 06:12:01;;;;;;;2.40;0.80;;;;;;;3.68;100.00;99121.69;10472436;28;20048;-83
2023/12/23 06:17:04;;;;;;;2.00;0.30;;;;;;;3.72;100.00;99101.03;10471170;28;20037;-80
2023/12/23 06:22:07;;;;;;;1.70;0.63;;;;;;;3.66;100.00;99083.75;10459177;28;20037;-81
2023/12/23 06:27:12;;;;;;;4.95;0.68;;;;;;;3.76;100.00;99091.03;10416402;28;20128;-81
2023/12/23 06:32:15;;;;;;;5.43;0.90;;;;;;;3.84;100.00;99048.81;10416567;28;20084;-82
2023/12/23 06:37:18;;;;;;;2.22;0.60;;;;;;;3.70;100.00;99040.09;10441593;28;20144;-84
2023/12/23 06:42:22;;;;;;;4.28;0.70;;;;;;;3.82;100.00;99029.50;10523756;28;20055;-84
2023/12/23 06:47:25;;;;;;;3.00;1.20;;;;;;;3.89;100.00;99014.78;10511847;28;20472;-84
2023/12/23 06:52:28;;;;;;;2.78;0.60;;;;;;;4.04;100.00;99018.13;10494136;28;20048;-84
2023/12/23 06:57:32;;;;;;;3.33;0.70;;;;;;;4.16;100.00;99009.19;10502341;28;20040;-82
2023/12/23 07:02:39;;;;;;;1.42;0.60;;;;;;;4.19;100.00;99003.66;10455123;28;20090;-82
2023/12/23 07:07:42;;;;;;;5.80;1.30;;;;;;;4.13;100.00;99006.78;10440337;28;20049;-82
2023/12/23 07:12:46;;;;;;;3.65;1.40;;;;;;;4.22;100.00;99006.06;10480137;28;20049;-82
2023/12/23 07:17:50;;;;;;;2.60;2.10;;;;;;;4.22;100.00;99000.75;10454131;28;20090;-81
2023/12/23 07:22:53;;;;;;;10.85;4.10;;;;;;;4.22;100.00;98984.81;10492427;28;20096;-82
2023/12/23 07:27:58;;;;;;;5.72;2.45;;;;;;;4.24;100.00;98982.88;10499267;28;20438;-81
2023/12/23 07:33:01;;;;;;;5.13;2.75;;;;;;;4.25;100.00;98973.97;10465103;28;20065;-82
2023/12/23 07:38:05;;;;;;;6.45;4.53;;;;;;;4.23;100.00;98978.53;10486788;28;20049;-81
2023/12/23 07:43:10;;;;;;;8.43;4.78;;;;;;;4.22;100.00;98966.19;10498977;28;20511;-82
2023/12/23 07:48:12;;;;;;;8.73;4.43;;;;;;;4.13;100.00;98962.44;10499536;28;20037;-82
2023/12/23 07:53:17;;;;;;;9.32;4.70;;;;;;;4.18;100.00;98954.13;10500393;28;20060;-81
2023/12/23 07:58:22;;;;;;;5.10;2.80;;;;;;;4.26;100.00;98940.25;10482937;28;20060;-80
2023/12/23 08:03:25;;;;;;;5.07;1.65;;;;;;;5.18;100.00;98933.78;10486340;28;20132;-83
2023/12/23 08:08:28;;;;;;;5.43;2.33;;;;;;;5.77;100.00;98939.63;10490057;28;20040;-81
2023/12/23 08:13:33;;;;;;;1.95;1.23;;;;;;;5.63;100.00;98917.66;10497231;28;20063;-81
2023/12/23 08:18:37;;;;;;;4.00;1.33;;;;;;;5.91;100.00;98924.16;10479913;28;20053;-80
2023/12/23 08:23:40;;;;;;;3.42;1.73;;;;;;;6.15;100.00;98928.38;10504650;28;20052;-81
2023/12/23 08:28:44;;;;;;;3.75;1.15;;;;;;;5.91;100.00;98923.31;10506121;28;20049;-82
2023/12/23 08:33:49;;;;;;;6.45;1.50;;;;;;;6.13;100.00;98935.66;10504674;28;20389;-83
2023/12/23 08:38:54;;;;;;;2.47;1.45;;;;;;;6.23;100.00;98927.72;10501868;28;20083;-84
2023/12/23 08:43:59;;;;;;;5.90;1.30;;;;;;;6.04;100.00;98923.97;10464272;28;20065;-82
2023/12/23 08:49:02;;;;;;;3.33;1.50;;;;;;;5.88;100.00;98924.41;10463227;28;20037;-82
2023/12/23 08:54:06;;;;;;;2.08;1.27;;;;;;;6.01;100.00;98912.72;10504594;28;20048;-82
2023/12/23 08:59:10;;;;;;;5.55;1.70;;;;;;;5.98;100.00;98934.28;10509054;28;20048;-84
2023/12/23 09:04:13;;;;;;;5.43;1.50;;;;;;;6.04;100.00;98934.63;10475448;28;20045;-81
2023/12/23 09:09:16;;;;;;;4.93;1.35;;;;;;;5.93;100.00;98943.53;10496438;28;20523;-82
2023/12/23 09:14:22;;;;;;;5.55;1.38;;;;;;;6.38;100.00;98967.22;10505729;28;20032;-84
2023/12/23 09:19:25;;;;;;;4.82;1.30;;;;;;;7.02;100.00;98992.84;10504756;28;20143;-83
2023/12/23 09:24:28;;;;;;;2.45;1.38;;;;;;;6.48;100.00;98993.97;10463215;28;20409;-81
2023/12/23 09:29:33;;;;;;;3.15;1.70;;;;;;;6.04;100.00;99040.41;10486866;28;20045;-81
2023/12/23 09:34:36;;;;;;;2.30;2.00;;;;;;;5.46;100.00;99057.53;10470729;28;20123;-82
2023/12/23 09:39:39;;;;;;;2.55;2.28;;;;;;;5.14;100.00;99053.94;10477038;28;20049;-82
2023/12/23 09:44:44;;;;;;;3.95;2.28;;;;;;;4.97;100.00;99057.91;10461795;28;20428;-84
2023/12/23 09:49:47;;;;;;;4.10;2.45;;;;;;;4.88;100.00;99071.94;10470548;28;20068;-82
2023/12/23 09:54:54;;;;;;;3.92;2.63;;;;;;;4.80;100.00;99086.69;10463292;28;20102;-83
2023/12/23 09:59:59;;;;;;;6.35;2.72;;;;;;;4.68;100.00;99100.09;10477910;28;20084;-81
2023/12/23 10:05:02;;;;;;;2.63;2.42;;;;;;;4.66;100.00;99099.34;10490054;28;20075;-82
2023/12/23 10:10:06;;;;;;;4.50;2.80;;;;;;;4.70;100.00;99106.16;10492856;28;20053;-83
2023/12/23 10:15:12;;;;;;;2.38;2.00;;;;;;;4.59;100.00;99104.31;10497205;28;20427;-82
2023/12/23 10:20:15;;;;;;;3.03;1.58;;;;;;;4.52;100.00;99113.69;10500275;28;20051;-82
2023/12/23 10:25:18;;;;;;;1.73;1.52;;;;;;;4.52;100.00;99122.53;10480341;28;20067;-83
2023/12/23 10:30:25;;;;;;;1.65;1.13;;;;;;;4.46;100.00;99122.16;10490912;28;20048;-84
2023/12/23 10:35:29;;;;;;;2.53;1.10;;;;;;;4.42;100.00;99131.34;10498212;28;20033;-84
2023/12/23 10:40:32;;;;;;;0.82;0.80;;;;;;;4.31;100.00;99135.66;10502548;28;20067;-84
2023/12/23 10:45:38;;;;;;;1.60;1.02;;;;;;;4.28;100.00;99127.91;10493745;28;20412;-84
2023/12/23 10:50:42;;;;;;;1.08;1.00;;;;;;;4.31;100.00;99146.28;10488846;28;20500;-83
2023/12/23 10:55:47;;;;;;;2.60;1.10;;;;;;;4.35;100.00;99144.22;10499846;28;20519;-84
2023/12/23 11:00:54;;;;;;;1.02;0.70;;;;;;;4.37;100.00;99156.44;10466352;28;20041;-83
2023/12/23 11:05:58;;;;;;;1.10;0.93;;;;;;;4.38;100.00;99158.13;10477300;28;20417;-84
2023/12/23 11:11:01;;;;;;;1.33;0.68;;;;;;;4.45;100.00;99163.00;10471872;28;20045;-82
2023/12/23 11:16:10;;;;;;;2.15;0.70;;;;;;;4.45;100.00;99177.16;10489003;28;20155;-84
2023/12/23 11:21:17;;;;;;;1.02;0.45;;;;;;;4.52;100.00;99166.88;10471359;28;20052;-84
2023/12/23 11:26:42;;;;;;;3.33;0.88;;;;;;;4.34;100.00;99169.13;10488168;28;20108;-84
2023/12/23 11:31:47;;;;;;;1.00;0.95;;;;;;;4.36;100.00;99176.03;10394621;28;20049;-83
2023/12/23 11:36:51;;;;;;;0.80;0.80;;;;;;;4.43;100.00;99179.06;10473816;28;20060;-83
2023/12/23 11:41:54;;;;;;;1.00;0.90;;;;;;;4.38;100.00;99175.91;10480908;28;20051;-83
2023/12/23 11:46:59;;;;;;;1.20;1.10;;;;;;;4.21;100.00;99189.59;10480818;28;20108;-82
2023/12/23 11:52:02;;;;;;;1.42;1.30;;;;;;;4.39;100.00;99181.13;10414824;28;20049;-82
2023/12/23 11:57:05;;;;;;;1.40;1.30;;;;;;;4.43;100.00;99180.88;10425370;28;20100;-82
2023/12/23 12:02:10;;;;;;;1.05;1.00;;;;;;;4.28;100.00;99166.91;10411897;28;20425;-82
2023/12/23 12:07:13;;;;;;;1.20;1.10;;;;;;;4.24;100.00;99163.63;10428146;28;20132;-80
2023/12/23 12:12:16;;;;;;;1.77;1.08;;;;;;;4.20;100.00;99166.63;10424567;28;20068;-83
2023/12/23 12:17:21;;;;;;;2.38;1.27;;;;;;;4.15;100.00;99159.84;10406705;28;20094;-82
2023/12/23 12:22:24;;;;;;;2.92;1.70;;;;;;;4.28;100.00;99170.44;10408386;28;20080;-83
2023/12/23 12:27:27;;;;;;;2.10;1.83;;;;;;;4.46;100.00;99162.88;10477966;28;20095;-83
2023/12/23 12:32:32;;;;;;;2.17;1.98;;;;;;;4.50;100.00;99163.50;10448655;28;20107;-81
2023/12/23 12:37:35;;;;;;;3.40;2.28;;;;;;;4.31;100.00;99164.88;10470040;28;20037;-82
2023/12/23 12:42:38;;;;;;;3.08;2.20;;;;;;;4.42;100.00;99166.75;10462125;28;20045;-82
2023/12/23 12:47:44;;;;;;;4.70;4.18;;;;;;;4.61;100.00;99167.06;10467476;28;20071;-82
2023/12/23 12:52:48;;;;;;;4.15;3.70;;;;;;;4.81;100.00;99162.03;10466643;28;20040;-83
2023/12/23 12:57:52;;;;;;;8.77;4.47;;;;;;;4.87;100.00;99166.88;10447105;28;20062;-82
2023/12/23 13:02:56;;;;;;;7.10;3.45;;;;;;;5.00;100.00;99172.16;10463827;28;20041;-81
2023/12/23 13:07:59;;;;;;;6.47;2.40;;;;;;;5.28;100.00;99174.34;10461921;28;20045;-82
2023/12/23 13:13:03;;;;;;;4.63;2.42;;;;;;;5.82;100.00;99171.91;10463028;28;20468;-80
2023/12/23 13:18:07;;;;;;;6.38;2.22;;;;;;;6.28;100.00;99181.47;10442565;28;20424;-80
2023/12/23 13:23:11;;;;;;;6.55;2.03;;;;;;;6.16;100.00;99180.69;10463091;28;20094;-81
2023/12/23 13:28:16;;;;;;;6.25;2.10;;;;;;;6.62;100.00;99192.88;10466765;28;20091;-79
2023/12/23 13:33:20;;;;;;;4.53;1.90;;;;;;;6.53;100.00;99196.34;10450872;28;20048;-81
2023/12/23 13:38:25;;;;;;;7.43;2.35;;;;;;;6.34;100.00;99205.00;10481680;28;20116;-81
2023/12/23 13:43:28;;;;;;;3.63;1.58;;;;;;;6.34;100.00;99200.50;10485981;28;20515;-83
2023/12/23 13:48:32;;;;;;;6.07;1.30;;;;;;;6.48;100.00;99194.03;10494360;28;20041;-81
2023/12/23 13:53:36;;;;;;;3.30;1.45;;;;;;;6.51;100.00;99217.78;10464091;28;20135;-81
2023/12/23 13:58:39;;;;;;;4.78;1.30;;;;;;;6.45;100.00;99220.13;10458323;28;20068;-81
2023/12/23 14:03:43;;;;;;;2.53;1.13;;;;;;;6.54;100.00;99219.34;10489599;28;20071;-79
2023/12/23 14:08:46;;;;;;;4.18;1.60;;;;;;;6.43;100.00;99216.72;10459573;28;20552;-82
2023/12/23 14:13:49;;;;;;;3.50;1.20;;;;;;;6.62;100.00;99241.75;10480591;28;20127;-81
2023/12/23 14:18:54;;;;;;;3.05;1.52;;;;;;;6.59;100.00;99231.34;10485161;28;20082;-82
2023/12/23 14:23:57;;;;;;;6.32;1.77;;;;;;;6.48;100.00;99258.06;10477263;28;20037;-81
2023/12/23 14:29:00;;;;;;;4.07;1.48;;;;;;;6.73;100.00;99254.22;10453547;28;20048;-82
2023/12/23 14:34:05;;;;;;;2.63;1.35;;;;;;;6.55;100.00;99256.56;10474220;28;20489;-82
2023/12/23 14:39:08;;;;;;;3.72;1.27;;;;;;;6.59;100.00;99267.84;10480621;28;20040;-82
2023/12/23 14:44:11;;;;;;;3.72;1.27;;;;;;;6.63;100.00;99272.78;10452630;28;20053;-82
2023/12/23 14:49:16;;;;;;;6.22;1.42;;;;;;;6.70;100.00;99278.50;10472852;28;20529;-81
2023/12/23 14:54:19;;;;;;;4.32;1.13;;;;;;;6.84;100.00;99296.88;10418802;28;20049;-80
2023/12/23 14:59:22;;;;;;;2.45;1.50;;;;;;;6.77;100.00;99294.84;10485592;28;20462;-80
2023/12/23 15:04:27;;;;;;;3.47;2.05;;;;;;;6.66;100.00;99295.72;10480165;28;20037;-84
2023/12/23 15:09:30;;;;;;;2.05;1.27;;;;;;;6.65;100.00;99311.88;10507880;28;20055;-85
2023/12/23 15:14:33;;;;;;;3.67;1.75;;;;;;;6.66;100.00;99314.38;10450240;28;20547;-82
2023/12/23 15:19:37;;;;;;;4.35;1.65;;;;;;;6.78;100.00;99331.25;10462716;28;20075;-83
2023/12/23 15:24:40;;;;;;;2.40;1.65;;;;;;;6.86;100.00;99326.13;10451829;28;20048;-82
2023/12/23 15:29:43;;;;;;;2.53;1.52;;;;;;;6.84;100.00;99342.25;10469649;28;20033;-83
2023/12/23 15:34:48;;;;;;;1.70;1.48;;;;;;;6.57;100.00;99353.34;10447721;28;20053;-82
2023/12/23 15:39:53;;;;;;;2.67;1.52;;;;;;;6.62;100.00;99347.66;10465030;28;20045;-82
2023/12/23 15:44:56;;;;;;;3.17;1.48;;;;;;;6.69;100.00;99364.00;10458774;28;20079;-84
2023/12/23 15:50:00;;;;;;;2.75;1.95;;;;;;;6.87;100.00;99367.88;10455378;28;20044;-84
2023/12/23 15:55:06;;;;;;;3.70;1.30;;;;;;;6.81;100.00;99365.69;10470182;28;20566;-83
2023/12/23 16:00:10;;;;;;;4.05;1.65;;;;;;;6.63;100.00;99370.69;10469613;28;20095;-83
2023/12/23 16:05:15;;;;;;;2.00;1.48;;;;;;;6.79;100.00;99378.31;10480824;28;20068;-83
2023/12/23 16:10:23;;;;;;;1.77;1.15;;;;;;;6.90;100.00;99359.63;10475593;28;20041;-84
2023/12/23 16:15:26;;;;;;;4.68;1.38;;;;;;;6.43;100.00;99364.28;10468416;28;20405;-83
2023/12/23 16:20:30;;;;;;;1.48;0.80;;;;;;;6.24;100.00;99366.72;10482881;28;20103;-83
2023/12/23 16:25:33;;;;;;;2.47;1.58;;;;;;;6.56;100.00;99366.84;10451132;28;20044;-83
2023/12/23 16:30:36;;;;;;;1.55;1.23;;;;;;;6.40;100.00;99372.53;10480191;28;20052;-83
2023/12/23 16:35:41;;;;;;;5.47;2.25;;;;;;;6.32;100.00;99374.97;10463192;28;20056;-84
2023/12/23 16:40:44;;;;;;;2.80;2.50;;;;;;;6.63;100.00;99374.19;10498230;28;20063;-83
2023/12/23 16:45:47;;;;;;;7.25;1.90;;;;;;;6.48;100.00;99361.25;10496633;28;20044;-85
2023/12/23 16:50:51;;;;;;;6.85;2.58;;;;;;;6.63;100.00;99368.00;10498253;28;20040;-85
2023/12/23 16:55:54;;;;;;;3.17;2.42;;;;;;;6.37;100.00;99389.63;10491088;28;20032;-82
2023/12/23 17:00:57;;;;;;;5.00;2.58;;;;;;;6.67;100.00;99390.00;10491002;28;20029;-84
2023/12/23 17:06:11;;;;;;;3.95;2.03;;;;;;;6.59;100.00;99393.25;10498697;28;20040;-84
2023/12/23 17:11:14;;;;;;;1.13;1.02;;;;;;;6.60;100.00;99384.28;10508384;28;20048;-83
2023/12/23 17:16:17;;;;;;;3.60;1.80;;;;;;;6.48;100.00;99398.63;10522111;28;20025;-84
2023/12/23 17:21:22;;;;;;;1.83;1.20;;;;;;;6.31;100.00;99410.63;10525632;28;20044;-83
2023/12/23 17:26:25;;;;;;;3.15;2.10;;;;;;;6.38;100.00;99390.47;10481350;28;20045;-81
2023/12/23 17:31:28;;;;;;;2.38;2.17;;;;;;;6.32;100.00;99380.31;10472478;28;20049;-81
2023/12/23 17:36:32;;;;;;;2.33;2.08;;;;;;;6.50;100.00;99401.97;10489991;28;20044;-85
2023/12/23 17:41:35;;;;;;;2.28;1.90;;;;;;;6.36;100.00;99392.41;10480315;28;20045;-84
2023/12/23 17:46:38;;;;;;;2.47;1.90;;;;;;;6.26;100.00;99400.31;10489762;28;20052;-81
2023/12/23 17:51:42;;;;;;;3.10;2.00;;;;;;;6.44;100.00;99399.81;10517636;28;20040;-81
2023/12/23 17:56:45;;;;;;;2.03;0.95;;;;;;;6.28;100.00;99393.03;10525469;28;20116;-79
2023/12/23 18:01:48;;;;;;;3.38;2.50;;;;;;;6.21;100.00;99393.63;10493283;28;20056;-82
2023/12/23 18:06:57;;;;;;;3.17;2.85;;;;;;;6.36;100.00;99387.06;10487712;28;20071;-83
2023/12/23 18:12:00;;;;;;;2.45;2.25;;;;;;;6.35;100.00;99390.72;10497032;28;20073;-83
2023/12/23 18:17:03;;;;;;;4.28;3.00;;;;;;;6.37;100.00;99386.13;10528141;28;20047;-82
2023/12/23 18:22:09;;;;;;;5.90;2.40;;;;;;;6.17;100.00;99387.69;10495398;28;20070;-83
2023/12/23 18:27:12;;;;;;;3.70;2.65;;;;;;;6.24;100.00;99393.41;10481608;28;20043;-83
2023/12/23 18:32:15;;;;;;;4.95;4.10;;;;;;;6.50;100.00;99383.31;10445396;28;20055;-83
2023/12/23 18:37:21;;;;;;;3.67;3.20;;;;;;;6.32;100.00;99393.63;10452598;28;20055;-83
2023/12/23 18:42:27;;;;;;;6.00;3.83;;;;;;;6.37;100.00;99400.31;10488100;28;20530;-82
2023/12/23 18:47:30;;;;;;;5.40;4.20;;;;;;;6.61;100.00;99426.03;10468454;28;20039;-83
2023/12/23 18:52:34;;;;;;;6.78;4.72;;;;;;;6.62;100.00;99407.19;10453907;28;20573;-83
2023/12/23 18:57:37;;;;;;;6.22;4.47;;;;;;;6.47;100.00;99408.41;10476303;28;20540;-82
2023/12/23 19:02:41;;;;;;;6.22;3.60;;;;;;;6.37;100.00;99410.97;10456289;28;20512;-82
2023/12/23 19:07:46;;;;;;;6.80;4.60;;;;;;;6.27;100.00;99410.00;10474248;28;20047;-82
2023/12/23 19:12:49;;;;;;;6.72;4.65;;;;;;;6.26;100.00;99407.47;10477459;28;20060;-82
2023/12/23 19:17:53;;;;;;;4.22;3.50;;;;;;;6.20;100.00;99421.25;10471013;28;20041;-81
2023/12/23 19:22:59;;;;;;;6.65;4.00;;;;;;;6.51;100.00;99412.56;10466816;28;20400;-81
2023/12/23 19:28:02;;;;;;;8.35;3.50;;;;;;;6.27;100.00;99406.47;10426397;28;20143;-80
2023/12/23 19:33:06;;;;;;;6.93;3.33;;;;;;;6.30;100.00;99412.41;10452313;28;20055;-82
2023/12/23 19:38:10;;;;;;;4.35;3.60;;;;;;;6.18;100.00;99408.06;10457469;28;20044;-82
2023/12/23 19:43:13;;;;;;;6.45;3.05;;;;;;;6.27;100.00;99419.81;10457912;28;20091;-82
2023/12/23 19:48:17;;;;;;;3.22;2.60;;;;;;;6.09;100.00;99408.78;10443611;28;20049;-81
2023/12/23 19:53:22;;;;;;;3.13;2.83;;;;;;;6.20;100.00;99422.13;10458716;28;20056;-82
2023/12/23 19:58:25;;;;;;;4.85;3.92;;;;;;;6.17;100.00;99419.66;10449269;28;20049;-83
2023/12/23 20:03:28;;;;;;;9.27;5.00;;;;;;;6.36;100.00;99416.41;10482950;28;20054;-82
2023/12/23 20:08:32;;;;;;;6.10;4.50;;;;;;;6.45;100.00;99412.19;10476606;28;20139;-81
2023/12/23 20:13:35;;;;;;;5.20;4.70;;;;;;;6.39;100.00;99419.72;10494437;28;20063;-83
2023/12/23 20:18:39;;;;;;;7.95;4.32;;;;;;;6.49;100.00;99413.63;10479050;28;20067;-83
2023/12/23 20:23:44;;;;;;;6.95;5.10;;;;;;;6.66;100.00;99421.13;10464984;28;20056;-83
2023/12/23 20:28:49;;;;;;;5.57;4.25;;;;;;;6.28;100.00;99426.84;10473610;28;20115;-82
2023/12/23 20:33:52;;;;;;;10.50;6.72;;;;;;;6.55;100.00;99431.81;10484498;28;20105;-82
2023/12/23 20:38:57;;;;;;;7.22;5.45;;;;;;;6.49;100.00;99418.97;10474880;28;20033;-82
2023/12/23 20:44:00;;;;;;;9.30;6.55;;;;;;;6.48;100.00;99414.63;10488951;28;20474;-82
2023/12/23 20:49:03;;;;;;;6.35;4.65;;;;;;;6.24;100.00;99415.56;10497703;28;20468;-81
2023/12/23 20:54:08;;;;;;;6.80;4.32;;;;;;;6.29;100.00;99417.88;10477940;28;20059;-82
2023/12/23 20:59:11;;;;;;;10.07;7.70;;;;;;;6.59;100.00;99412.78;10453622;28;20041;-82
2023/12/23 21:04:14;;;;;;;9.00;7.30;;;;;;;6.63;100.00;99419.56;10476796;28;20044;-82
2023/12/23 21:09:18;;;;;;;6.78;4.97;;;;;;;6.37;100.00;99434.13;10480372;28;20041;-81
2023/12/23 21:14:21;;;;;;;8.30;7.07;;;;;;;6.35;100.00;99396.91;10499973;28;20044;-82
2023/12/23 21:19:24;;;;;;;4.90;4.28;;;;;;;6.49;100.00;99403.81;10483777;28;20485;-82
2023/12/23 21:24:29;;;;;;;9.15;6.57;;;;;;;6.44;100.00;99411.31;10476209;28;20075;-82
2023/12/23 21:29:32;;;;;;;12.68;7.88;;;;;;;6.58;100.00;99415.56;10469503;28;20120;-81
2023/12/23 21:34:35;;;;;;;7.30;4.90;;;;;;;6.42;100.00;99417.75;10465881;28;20404;-83
2023/12/23 21:39:40;;;;;;;10.77;7.22;;;;;;;6.34;100.00;99416.56;10468812;28;20036;-81
2023/12/23 21:44:43;;;;;;;8.73;7.40;;;;;;;6.45;100.00;99404.19;10470580;28;20135;-82
2023/12/23 21:49:46;;;;;;;14.63;7.95;;;;;;;6.23;100.00;99379.22;10481234;28;20052;-83
2023/12/23 21:54:51;;;;;;;9.18;5.93;;;;;;;6.36;100.00;99433.28;10468890;28;20048;-83
2023/12/23 21:59:53;;;;;;;15.48;9.38;;;;;;;6.60;100.00;99405.63;10476458;28;20041;-81
2023/12/23 22:04:57;;;;;;;14.80;11.15;;;;;;;6.59;100.00;99423.47;10481379;28;20058;-81
2023/12/23 22:10:01;;;;;;;15.55;12.52;;;;;;;6.33;100.00;99403.31;10462378;28;20045;-82
2023/12/23 22:15:05;;;;;;;17.60;12.68;;;;;;;6.56;100.00;99410.38;10479260;28;20060;-81
2023/12/23 22:20:09;;;;;;;10.55;7.53;;;;;;;6.23;100.00;99397.88;10473425;28;20052;-81
2023/12/23 22:25:17;;;;;;;10.77;6.97;;;;;;;6.39;100.00;99389.53;10499454;28;20095;-81
2023/12/23 22:30:20;;;;;;;6.10;3.50;;;;;;;6.09;100.00;99404.31;10487937;28;20115;-84
2023/12/23 22:35:23;;;;;;;14.10;9.48;;;;;;;6.27;100.00;99404.66;10472258;28;20055;-83
2023/12/23 22:40:28;;;;;;;10.05;5.88;;;;;;;6.37;100.00;99405.63;10483881;28;20037;-81
2023/12/23 22:45:31;;;;;;;11.48;7.95;;;;;;;6.39;100.00;99398.38;10475553;28;20410;-82
2023/12/23 22:50:35;;;;;;;15.18;10.32;;;;;;;6.48;100.00;99395.94;10482697;28;20040;-82
2023/12/23 22:55:40;;;;;;;10.77;7.25;;;;;;;6.20;100.00;99379.47;10468321;28;20140;-83
2023/12/23 23:00:43;;;;;;;15.00;9.70;;;;;;;6.43;100.00;99380.28;10471207;28;20069;-82
2023/12/23 23:05:46;;;;;;;16.33;11.95;;;;;;;6.40;100.00;99362.72;10473854;28;20102;-84
2023/12/23 23:10:52;;;;;;;12.07;8.18;;;;;;;6.06;100.00;99329.00;10460090;28;20045;-81
2023/12/23 23:15:55;;;;;;;12.82;10.52;;;;;;;6.29;100.00;99349.38;10481361;28;20114;-83
2023/12/23 23:20:58;;;;;;;23.67;14.85;;;;;;;6.42;100.00;99353.72;10464113;28;20037;-82
2023/12/23 23:26:03;;;;;;;20.80;12.55;;;;;;;6.48;100.00;99391.44;10449484;28;20056;-83
2023/12/23 23:31:06;;;;;;;23.02;13.15;;;;;;;6.29;100.00;99385.88;10455047;28;20087;-85